Weather observations for the past three days for
Oakdale, Allen Parish Airport
Metric (Imperial)
Date Time (cdt) Wind (kph) Vis. (km) Weather Sky Cond. Temperature (ºC) Relative Humidity Wind Chill (°C) Heat Index (°C) Pressure Precipitation (cm)
Air Dwpt 6 hour altimeter (cm) sea level (mb) 1 hr 3 hr 6 hr
Max. Min.
03 06:15 Calm 4.83 Fog/Mist BKN001 23 22 94% 76.15 0.0
03 05:55 Calm 0.80 Fog OVC001 23 22 94% 76.15 0.0
03 05:35 Calm 6.44 Fog/Mist OVC001 23 22 94% 76.15 0.0
03 05:15 Calm 8.05 Fog/Mist BKN001 23 21 89% 76.12 0.0
03 04:55 Calm 11.27 Partly Cloudy SCT001 23 22 94% 76.12 0.0
03 04:35 Calm 6.44 Fog/Mist CLR 23 21 89% 76.12 0.0
03 04:15 Calm 4.83 Fog/Mist CLR 23 21 89% 76.12 0.0
03 03:55 Calm 11.27 Fair CLR 23 21 89% 76.12 0.0
03 03:35 Calm 2.41 Fog/Mist VV007 23 22 94% 76.1 0.0
03 03:15 Calm 2.82 Fog/Mist VV007 23 22 94% 76.1 0.0
03 02:55 Calm 11.27 Fair CLR 24 22 89% 24 76.1 0.0
03 02:35 Calm 11.27 Fair CLR 24 22 89% 24 76.12 0.0
03 02:15 Calm 4.83 Fog/Mist CLR 24 22 89% 24 76.12 0.0
03 01:55 Calm 1.61 Fog/Mist VV007 24 22 89% 24 76.15 0.0
03 01:35 Calm 11.27 Fair CLR 24 23 94% 23 76.15 0.0
03 01:15 Calm 16.09 Fair CLR 25 23 89% 26 76.15 0.0
03 00:55 Calm 11.27 Fair CLR 24 23 94% 23 76.17 0.0
03 00:35 Calm 16.09 Fair CLR 25 23 89% 26 76.17 0.0
03 00:15 Calm 16.09 Fair CLR 25 23 89% 26 76.15 0.0
02 23:55 Calm 16.09 Fair CLR 25 23 89% 26 76.15 0.0
02 23:35 Calm 16.09 Fair CLR 25 23 89% 26 76.17 0.0
02 23:15 Calm 16.09 Fair CLR 25 23 89% 26 76.17 0.0
02 22:55 Calm 16.09 Fair CLR 25 23 89% 26 76.2 0.0
02 22:35 Calm 16.09 Fair CLR 25 23 89% 26 76.2 0.0
02 22:15 Calm 16.09 Fair CLR 25 23 89% 26 76.2 0.0
02 21:55 Calm 16.09 Fair CLR 26 24 89% 28 76.2 0.0
02 21:35 Calm 16.09 Fair CLR 26 24 89% 28 76.17 0.0
02 21:15 Calm 16.09 Fair CLR 26 24 89% 28 76.15 0.0
02 20:55 Calm 16.09 Fair CLR 26 24 89% 28 76.12 0.0
02 20:35 Calm 16.09 Fair CLR 27 24 84% 30 76.12 0.0
02 20:15 Calm 16.09 Fair CLR 26 24 89% 28 76.12 0.0
02 19:55 Calm 16.09 Fair CLR 27 24 84% 30 76.12 0.0
02 19:35 Calm 16.09 Fair CLR 27 24 84% 30 76.1 0.0
02 19:15 Calm 16.09 Fair CLR 28 24 79% 32 76.12 0.0
02 18:55 Calm 16.09 Fair CLR 29 24 74% 34 76.12 0.0
02 18:35 Calm 16.09 Fair CLR 29 24 74% 34 76.12 0.0
02 18:15 Calm 16.09 Fair CLR 29 24 74% 34 76.12 0.0
02 17:55 Calm 16.09 Fair CLR 30 23 66% 34 76.12 0.0
02 17:35 E 6 16.09 Fair CLR 30 23 66% 34 76.12 0.0
02 17:15 E 6 16.09 Fair CLR 30 24 70% 35 76.12 0.0
02 16:55 E 6 16.09 Fair CLR 29 23 70% 33 76.12 0.0
02 16:35 E 6 16.09 Fair CLR 29 23 70% 33 76.17 0.0
02 16:15 E 6 16.09 Fair CLR 29 23 70% 33 76.2 0.0
02 15:55 E 7 16.09 Partly Cloudy SCT018 SCT026 SCT050 30 24 70% 35 76.2 0.0
02 15:35 SE 9 16.09 Mostly Cloudy SCT018 SCT026 BKN060 30 24 70% 35 76.23 0.0
02 15:15 Calm 16.09 Partly Cloudy SCT060 SCT100 30 23 66% 34 76.23 0.0
02 14:55 Calm 16.09 Fair CLR 30 23 66% 34 76.23 0.0
02 14:35 Calm 16.09 Partly Cloudy SCT055 SCT100 30 23 66% 34 76.23 0.0
02 14:15 SE 6 16.09 Partly Cloudy SCT055 30 23 66% 34 76.25 0.0
02 13:55 SW 9 16.09 Fair CLR 31 23 62% 35 76.23 0.0
02 13:35 S 11 16.09 Fair CLR 31 23 62% 35 76.23 0.0
02 13:15 S 15 16.09 Fair CLR 31 23 62% 35 76.23 0.0
02 12:55 SW 17 16.09 Partly Cloudy SCT025 32 23 59% 37 76.25 0.0
02 12:35 S 7 16.09 Partly Cloudy SCT025 32 24 63% 38 76.25 0.0
02 12:15 S 11 16.09 Partly Cloudy SCT027 32 24 63% 38 76.28 0.0
02 11:55 SE 6 16.09 Fair CLR 31 25 70% 38 76.3 0.0
02 11:35 Calm 16.09 Fair CLR 31 25 70% 38 76.3 0.0
02 11:15 S 7 16.09 Partly Cloudy SCT020 SCT060 SCT070 31 25 70% 38 76.3 0.0
02 10:55 S 7 16.09 Mostly Cloudy SCT020 BKN060 BKN070 30 25 75% 36 76.3 0.0
02 10:35 SE 6 16.09 Partly Cloudy SCT016 SCT021 30 25 75% 36 76.3 0.0
02 10:15 SE 7 16.09 Fair CLR 29 25 79% 35 76.28 0.0
02 09:55 SE 6 16.09 Fair CLR 29 25 79% 35 76.28 0.0
02 09:35 Calm 16.09 Fair CLR 28 25 84% 33 76.28 0.0
02 09:15 Calm 16.09 Fair CLR 27 25 89% 31 76.28 0.0
02 08:55 Calm 16.09 Fair CLR 27 25 89% 31 76.28 0.0
02 08:35 Calm 16.09 Fair CLR 26 24 89% 28 76.25 0.0
02 08:15 E 6 16.09 Fair CLR 26 24 89% 28 76.23 0.0
02 07:55 Calm 16.09 Fair CLR 26 24 89% 28 76.23 0.0 0.03
02 07:35 Calm 16.09 Partly Cloudy SCT031 26 24 89% 28 76.23 0.0 0.03
02 07:15 Calm 16.09 Mostly Cloudy SCT031 SCT050 BKN060 26 24 89% 28 76.17 0.0 0.03
02 06:55 SE 6 11.27 Mostly Cloudy SCT024 SCT037 BKN065 26 24 89% 28 76.2 0.0
02 06:35 Calm 16.09 Fair CLR 25 24 94% 26 76.2 0.0
02 06:15 E 7 16.09 Partly Cloudy SCT005 25 24 94% 26 76.17 0.0
02 05:55 Calm 16.09 Fair CLR 25 24 94% 26 76.15 0.0
02 05:35 Calm 16.09 Fair CLR 25 24 94% 26 76.15 0.0
02 05:15 SE 6 16.09 Partly Cloudy SCT002 25 24 94% 26 76.15 0.0
02 04:55 E 6 16.09 Mostly Cloudy BKN002 25 24 94% 26 76.15 0.0
02 04:15 E 6 16.09 Fair CLR 25 24 94% 26 76.15 0.0
02 03:55 Calm 16.09 Fair CLR 25 24 94% 26 76.15 0.0
02 03:35 Calm 16.09 Fair CLR 25 24 94% 26 76.15 0.0
02 03:15 Calm 16.09 Fair CLR 25 24 94% 26 76.15 0.0
02 02:55 Calm 16.09 Fair CLR 25 24 94% 26 76.15 0.0
02 02:35 Calm 16.09 Fair CLR 25 24 94% 26 76.17 0.0
02 02:15 Calm 16.09 Fair CLR 26 24 89% 28 76.17 0.0
02 01:55 Calm 16.09 Fair CLR 26 24 89% 28 76.17 0.0
02 01:35 E 6 16.09 Fair CLR 26 24 89% 28 76.17 0.0
02 01:15 E 6 16.09 Fair CLR 26 24 89% 28 76.17 0.0
02 00:55 Calm 16.09 Fair CLR 26 24 89% 28 76.17 0.0
02 00:35 Calm 16.09 Fair CLR 26 24 89% 28 76.17 0.0
02 00:15 E 6 16.09 Partly Cloudy SCT007 26 24 89% 28 76.17 0.0
01 23:55 Calm 16.09 Partly Cloudy SCT007 26 24 89% 28 76.17 0.0
01 23:35 Calm 16.09 Fair CLR 26 24 89% 28 76.2 0.0
01 23:15 Calm 16.09 Fair CLR 26 24 89% 28 76.2 0.0
01 22:55 Calm 16.09 Partly Cloudy SCT009 26 24 89% 28 76.2 0.0
01 22:35 Calm 16.09 Partly Cloudy SCT009 26 24 89% 28 76.17 0.0
01 22:15 Calm 16.09 Fair CLR 26 24 89% 28 76.15 0.0
01 21:55 Calm 16.09 Fair CLR 26 24 89% 28 76.15 0.0
01 21:35 SE 6 16.09 Fair CLR 26 24 89% 28 76.15 0.0
01 21:15 Calm 16.09 Fair CLR 26 24 89% 28 76.12 0.0
01 20:55 Calm 16.09 Fair CLR 26 24 89% 28 76.1 0.0
01 20:35 E 6 16.09 Fair CLR 27 24 84% 30 76.1 0.0
01 20:15 E 6 16.09 Fair CLR 27 24 84% 30 76.1 0.0
01 19:55 SE 6 16.09 Fair CLR 27 24 84% 30 76.1 0.0
01 19:35 SE 7 16.09 Fair CLR 27 24 84% 30 76.12 0.0
01 19:15 SE 6 16.09 Fair CLR 27 24 84% 30 76.1 0.0
01 18:55 E 7 16.09 Fair CLR 28 24 79% 32 76.1 0.0
01 18:35 E 7 16.09 Fair CLR 28 24 79% 32 76.1 0.0
01 18:15 E 9 16.09 Fair CLR 28 24 79% 32 76.1 0.0
01 17:55 E 6 16.09 Partly Cloudy SCT013 28 24 79% 32 76.07 0.0
01 17:35 E 9 16.09 Fair CLR 28 24 79% 32 76.05 0.0
01 17:15 E 13 16.09 Fair CLR 28 24 79% 32 76.07 0.0
01 16:55 E 7 16.09 Partly Cloudy SCT010 SCT120 27 24 84% 30 76.1 0.0
01 16:35 E 9 16.09 Partly Cloudy SCT010 27 24 84% 30 76.1 0.0
01 16:15 E 7 16.09 Partly Cloudy SCT010 27 23 79% 30 76.12 0.0
01 15:55 Calm 16.09 Fair CLR 27 23 79% 30 76.15 0.0
01 15:35 E 9 16.09 Fair CLR 27 23 79% 30 76.17 0.0
01 15:15 E 9 16.09 Fair CLR 26 23 84% 28 76.17 0.0
01 14:55 E 9 16.09 Fair CLR 26 23 84% 28 76.2 0.0
01 14:35 E 11 16.09 Fair CLR 26 23 84% 28 76.2 0.0
01 14:15 NE 9 16.09 Partly Cloudy SCT070 SCT100 25 23 89% 26 76.2 0.0
01 13:55 NE 7 16.09 Partly Cloudy SCT070 SCT100 25 23 89% 26 76.23 0.0
01 13:35 Calm 16.09 Partly Cloudy SCT050 SCT075 25 23 89% 26 76.23 0.0
01 13:15 E 7 16.09 Mostly Cloudy SCT043 SCT055 BKN080 25 23 89% 26 76.25 0.0
01 12:55 E 7 16.09 Partly Cloudy SCT044 25 23 89% 26 76.28 0.0
01 12:35 E 13 16.09 Light Rain SCT017 SCT023 SCT034 26 24 89% 28 76.25 0.0
01 12:15 E 11 16.09 Light Rain BKN016 OVC023 28 24 79% 32 76.23 0.0
01 11:55 E 13 16.09 Mostly Cloudy BKN014 BKN021 29 24 74% 34 76.23 0.0
01 11:35 NE 13 16.09 Mostly Cloudy SCT013 SCT080 BKN095 30 24 70% 35 76.23 0.0
01 11:15 NE 11 16.09 Overcast SCT015 BKN045 OVC090 29 24 74% 34 76.28 0.0
01 10:55 NE 11 16.09 Overcast SCT016 BKN023 OVC035 28 24 79% 32 76.28 0.0
01 10:35 E 9 16.09 Mostly Cloudy SCT014 BKN023 BKN060 28 24 79% 32 76.25 0.0
01 10:15 NE 9 16.09 Mostly Cloudy SCT008 BKN013 BKN039 29 24 74% 34 76.25 0.0
01 09:55 NE 13 16.09 Mostly Cloudy BKN008 BKN039 27 24 84% 30 76.25 0.0
01 09:35 NE 7 16.09 Mostly Cloudy BKN008 BKN036 BKN075 26 24 89% 28 76.25 0.0
01 09:15 NE 9 16.09 Overcast BKN008 OVC011 26 23 84% 28 76.23 0.0
01 08:55 NE 9 16.09 Overcast BKN008 OVC013 26 23 84% 28 76.25 0.0
01 08:35 NE 6 16.09 Overcast BKN008 OVC013 26 23 84% 28 76.25 0.0
01 08:15 NE 7 16.09 Mostly Cloudy BKN010 BKN015 BKN100 25 23 89% 26 76.23 0.0
01 07:55 N 7 16.09 Mostly Cloudy SCT007 BKN014 BKN100 25 23 89% 26 76.2 0.0
01 07:35 N 6 16.09 Partly Cloudy SCT007 SCT017 SCT095 25 23 89% 26 76.2 0.0
01 07:15 Calm 16.09 Fair CLR 25 23 89% 26 76.2 0.0
01 06:55 Calm 16.09 Partly Cloudy SCT014 25 23 89% 26 76.17 0.0
01 06:35 Calm 16.09 Partly Cloudy SCT014 SCT021 25 23 89% 26 76.15 0.0
01 06:15 N 6 16.09 Mostly Cloudy BKN014 25 23 89% 26 76.15 0.0
01 05:55 NE 6 16.09 Partly Cloudy SCT012 24 23 94% 23 76.17 0.0
01 05:35 Calm 16.09 Fair CLR 24 23 94% 23 76.17 0.0
01 05:15 Calm 16.09 Fair CLR 24 23 94% 23 76.17 0.0
01 04:55 N 6 16.09 Fair CLR 24 23 94% 23 76.15 0.0
01 04:35 Calm 16.09 Partly Cloudy SCT017 24 22 89% 24 76.17 0.0
01 04:15 Calm 16.09 Fair CLR 24 22 89% 24 76.15 0.0
01 03:55 Calm 16.09 Fair CLR 24 22 89% 24 76.15 0.0
01 03:35 Calm 16.09 Fair CLR 24 22 89% 24 76.15 0.0
01 03:15 Calm 16.09 Fair CLR 24 22 89% 24 76.15 0.0
01 02:55 Calm 8.05 Fog/Mist CLR 24 22 89% 24 76.17 0.0
01 02:35 Calm 16.09 Fair CLR 24 22 89% 24 76.17 0.0
01 02:15 Calm 16.09 Fair CLR 24 22 89% 24 76.17 0.0
01 01:55 Calm 16.09 Fair CLR 24 22 89% 24 76.2 0.0
01 01:35 Calm 16.09 Fair CLR 24 22 89% 24 76.2 0.0
01 01:15 Calm 16.09 Fair CLR 24 22 89% 24 76.2 0.0
01 00:55 Calm 16.09 Fair CLR 24 22 89% 24 76.2 0.0
01 00:35 Calm 16.09 Fair CLR 24 22 89% 24 76.23 0.0
01 00:15 Calm 16.09 Fair CLR 25 23 89% 26 76.23 0.0
31 23:55 Calm 16.09 Fair CLR 25 23 89% 26 76.2 0.0
31 23:35 Calm 16.09 Fair CLR 25 23 89% 26 76.2 0.0
31 23:15 Calm 16.09 Fair CLR 25 23 89% 26 76.2 0.0
31 22:55 Calm 16.09 Fair CLR 25 23 89% 26 76.2 0.0
31 22:35 Calm 16.09 Fair CLR 25 23 89% 26 76.17 0.0
31 22:15 Calm 16.09 Fair CLR 25 23 89% 26 76.17 0.0
31 21:55 Calm 16.09 Fair CLR 26 23 84% 28 76.15 0.0
31 21:35 Calm 16.09 Fair CLR 26 23 84% 28 76.15 0.0
31 21:15 Calm 16.09 Fair CLR 26 23 84% 28 76.15 0.0
31 20:55 Calm 16.09 Fair CLR 26 23 84% 28 76.15 0.0
31 20:35 Calm 16.09 Fair CLR 27 24 84% 30 76.12 0.0
31 20:15 Calm 16.09 Partly Cloudy SCT050 SCT070 27 24 84% 30 76.12 0.0
31 19:55 Calm 16.09 Partly Cloudy SCT050 28 24 79% 32 76.15 0.0
31 19:35 Calm 16.09 Partly Cloudy SCT050 SCT100 SCT120 29 24 74% 34 76.12 0.0
31 19:15 Calm 16.09 Partly Cloudy SCT110 30 24 70% 35 76.1 0.0
31 18:55 Calm 16.09 Fair CLR 30 23 66% 34 76.12 0.0
31 18:35 Calm 16.09 Partly Cloudy SCT120 30 23 66% 34 76.15 0.0
31 18:15 E 7 16.09 Fair CLR 31 23 62% 35 76.15 0.0
31 17:55 SE 11 16.09 Partly Cloudy SCT055 SCT075 SCT110 31 22 59% 35 76.15 0.0
31 17:35 SE 11 16.09 Partly Cloudy SCT028 SCT050 SCT070 31 24 66% 37 76.12 0.0
31 17:15 SE 7 16.09 Partly Cloudy SCT095 35 22 47% 39 76.1 0.0
31 16:55 SE 6 16.09 Overcast SCT060 SCT070 OVC095 33 21 49% 36 76.1 0.0
31 16:35 E 11 16.09 Mostly Cloudy SCT050 SCT065 BKN100 34 22 50% 38 76.12 0.0
31 16:15 Calm 16.09 Partly Cloudy SCT050 SCT065 SCT110 34 21 47% 37 76.12 0.0
31 15:55 NE 11 G 30 16.09 Partly Cloudy SCT048 SCT070 SCT085 35 21 44% 38 76.15 0.0
31 15:35 E 6 16.09 Mostly Cloudy SCT048 SCT060 BKN110 34 22 50% 38 76.15 0.0
31 15:15 NE 17 16.09 Partly Cloudy SCT048 SCT070 SCT090 35 22 47% 39 76.15 0.0
31 14:55 N 17 16.09 Partly Cloudy SCT043 SCT070 SCT090 35 22 47% 39 76.17 0.0
31 14:35 N 11 16.09 Partly Cloudy SCT043 SCT049 SCT065 34 22 50% 38 76.2 0.0
31 14:15 NE 11 16.09 Partly Cloudy SCT043 SCT049 SCT065 34 22 50% 38 76.23 0.0
31 13:55 NE 11 16.09 Partly Cloudy SCT039 SCT047 SCT070 33 22 52% 37 76.23 0.0
31 13:35 N 15 16.09 Partly Cloudy SCT041 SCT065 33 22 52% 37 76.25 0.0
31 13:15 NE 7 16.09 Partly Cloudy SCT065 34 22 50% 38 76.28 0.0
31 12:55 E 9 16.09 Partly Cloudy SCT036 SCT055 33 22 52% 37 76.28 0.0
31 12:35 NE 9 16.09 Mostly Cloudy SCT034 BKN055 33 22 52% 37 76.3 0.0
31 12:15 NE 15 16.09 Mostly Cloudy BKN032 BKN045 33 22 52% 37 76.33 0.0
31 11:55 NE 7 16.09 Mostly Cloudy SCT032 BKN039 BKN046 32 23 59% 37 76.33 0.0
31 11:35 NE 11 16.09 Mostly Cloudy SCT029 BKN039 BKN047 31 22 59% 35 76.35 0.0
31 11:15 NE 9 16.09 Partly Cloudy SCT028 32 23 59% 37 76.35 0.0
31 10:55 N 9 16.09 Partly Cloudy SCT023 SCT031 31 23 62% 35 76.35 0.0
31 10:35 NE 11 16.09 Mostly Cloudy BKN021 30 23 66% 34 76.35 0.0
31 10:15 NE 6 16.09 Partly Cloudy SCT017 30 23 66% 34 76.35 0.0
31 09:55 Calm 16.09 Partly Cloudy SCT015 29 24 74% 34 76.35 0.0
31 09:35 N 6 16.09 Fair CLR 29 24 74% 34 76.33 0.0
31 09:15 NE 7 16.09 Fair CLR 28 23 74% 31 76.33 0.0
31 08:55 NE 7 16.09 Fair CLR 27 23 79% 30 76.33 0.0
31 08:35 Calm 16.09 Fair CLR 26 23 84% 28 76.3 0.0
31 08:15 Calm 16.09 Fair CLR 25 23 89% 26 76.3 0.0
31 07:55 Calm 16.09 Fair CLR 24 22 89% 24 76.28 0.0
31 07:35 Calm 16.09 Fair CLR 23 21 89% 76.28 0.0
31 07:15 Calm 16.09 Fair CLR 23 21 89% 76.25 0.0
31 06:55 Calm 16.09 Fair CLR 23 21 89% 76.23 0.0
31 06:35 Calm 16.09 Fair CLR 23 21 89% 76.23 0.0
Date Time (cdt) Wind (kph) Vis. (km) Weather Sky Cond. Air Dwpt Max. Min. Relative Humidity Wind Chill (°C) Heat Index (°C) altimeter (cm) sea level (mb) 1 hr 3 hr 6 hr
6 hour
Temperature (ºC) Pressure Precipitation (cm)